createdAt,value
2023-05-08T00:04:01.077Z,7.4
2023-05-08T00:06:00.959Z,7.5
2023-05-08T00:08:00.993Z,7.5
2023-05-08T00:10:00.935Z,7.4
2023-05-08T00:13:01.053Z,7.4
2023-05-08T00:18:01.077Z,7.4
2023-05-08T00:22:00.935Z,7.4
2023-05-08T00:23:00.981Z,7.3
2023-05-08T00:24:00.949Z,7.1
2023-05-08T00:26:00.983Z,7.2
2023-05-08T00:27:01.026Z,7.3
2023-05-08T00:29:00.966Z,7.1
2023-05-08T00:31:00.981Z,7.2
2023-05-08T00:33:01.021Z,7.1
2023-05-08T00:36:00.954Z,7.1
2023-05-08T00:41:00.934Z,7.2
2023-05-08T00:42:01.026Z,7.1
2023-05-08T00:44:00.942Z,7.2
2023-05-08T00:45:00.996Z,7
2023-05-08T00:48:01.094Z,7
2023-05-08T00:53:00.965Z,7.1
2023-05-08T00:54:00.961Z,7
2023-05-08T00:58:00.956Z,6.9
2023-05-08T00:59:00.968Z,7
2023-05-08T01:00:00.988Z,6.9
2023-05-08T01:04:00.953Z,7
2023-05-08T01:06:00.956Z,6.9
2023-05-08T01:08:00.957Z,6.9
2023-05-08T01:10:00.951Z,6.8
2023-05-08T01:11:00.965Z,6.9
2023-05-08T01:13:00.983Z,6.8
2023-05-08T01:15:00.993Z,6.9
2023-05-08T01:18:01.068Z,6.9
2023-05-08T01:20:00.941Z,6.9
2023-05-08T01:22:00.992Z,6.8
2023-05-08T01:26:01.160Z,6.7
2023-05-08T01:30:01.225Z,6.9
2023-05-08T01:33:01.012Z,6.8
2023-05-08T01:35:00.970Z,6.7
2023-05-08T01:37:00.961Z,6.8
2023-05-08T01:38:00.956Z,6.7
2023-05-08T01:39:00.973Z,6.8
2023-05-08T01:41:00.959Z,6.7
2023-05-08T01:43:00.942Z,6.7
2023-05-08T01:45:00.982Z,6.6
2023-05-08T01:47:00.953Z,6.6
2023-05-08T01:50:00.994Z,6.5
2023-05-08T01:52:00.972Z,6.5
2023-05-08T01:54:01.055Z,6.6
2023-05-08T01:56:00.939Z,6.5
2023-05-08T01:57:01.027Z,6.6
2023-05-08T01:59:00.932Z,6.6
2023-05-08T02:00:01.038Z,6.5
2023-05-08T02:02:01.001Z,6.6
2023-05-08T02:04:00.980Z,6.5
2023-05-08T02:06:01.121Z,6.5
2023-05-08T02:08:01.042Z,6.4
2023-05-08T02:10:00.950Z,6.5
2023-05-08T02:11:00.987Z,6.3
2023-05-08T02:13:01.038Z,6.3
2023-05-08T02:16:00.958Z,6.2
2023-05-08T02:18:01.041Z,6.1
2023-05-08T02:22:00.948Z,6.1
2023-05-08T02:23:00.960Z,6.2
2023-05-08T02:25:00.965Z,6.1
2023-05-08T02:27:00.943Z,6.1
2023-05-08T02:32:01.022Z,6.2
2023-05-08T02:33:01.137Z,6
2023-05-08T02:39:01.034Z,6.1
2023-05-08T02:41:00.928Z,6.1
2023-05-08T02:42:00.940Z,6
2023-05-08T02:45:01.129Z,5.9
2023-05-08T02:48:01.092Z,5.9
2023-05-08T02:51:00.973Z,5.9
2023-05-08T02:55:00.955Z,5.8
2023-05-08T02:59:00.953Z,5.7
2023-05-08T03:00:01.220Z,5.8
2023-05-08T03:04:01.002Z,5.8
2023-05-08T03:08:00.951Z,5.6
2023-05-08T03:09:00.940Z,5.7
2023-05-08T03:12:00.998Z,5.6
2023-05-08T03:14:00.938Z,5.6
2023-05-08T03:15:01.108Z,5.7
2023-05-08T03:18:00.964Z,5.8
2023-05-08T03:19:00.981Z,5.7
2023-05-08T03:22:00.991Z,5.7
2023-05-08T03:23:00.971Z,5.8
2023-05-08T03:24:01.058Z,5.7
2023-05-08T03:27:00.963Z,5.9
2023-05-08T03:28:00.980Z,5.8
2023-05-08T03:31:00.998Z,5.8
2023-05-08T03:35:01.083Z,5.9
2023-05-08T03:37:01.136Z,6
2023-05-08T03:40:00.970Z,6
2023-05-08T03:46:00.954Z,6.2
2023-05-08T03:47:01.062Z,6
2023-05-08T03:48:01.046Z,6.1
2023-05-08T03:50:01.037Z,6.2
2023-05-08T03:52:01.012Z,6
2023-05-08T03:54:01.118Z,6.2
2023-05-08T03:58:01.014Z,6.2
2023-05-08T04:00:01.055Z,6.1
2023-05-08T04:02:00.968Z,6.2
2023-05-08T04:04:00.975Z,6.4
2023-05-08T04:06:01.074Z,6.2
2023-05-08T04:10:01.032Z,6.2
2023-05-08T04:11:01.024Z,6.4
2023-05-08T04:14:01.024Z,6.6
2023-05-08T04:16:00.978Z,6.4
2023-05-08T04:17:01.024Z,6.6
2023-05-08T04:18:01.024Z,6.4
2023-05-08T04:19:01.132Z,6.6
2023-05-08T04:21:01.104Z,6.6
2023-05-08T04:23:01.067Z,6.6
2023-05-08T04:26:01.014Z,7.1
2023-05-08T04:27:01.100Z,7.3
2023-05-08T04:29:00.948Z,8.2
2023-05-08T04:31:00.936Z,9.1
2023-05-08T04:32:01.005Z,9.7
2023-05-08T04:33:01.007Z,10.2
2023-05-08T04:34:01.025Z,10.7
2023-05-08T04:36:00.994Z,11.6
2023-05-08T04:38:00.949Z,12.5
2023-05-08T04:39:01.155Z,12.7
2023-05-08T04:41:01.185Z,13.5
2023-05-08T04:43:01.103Z,13.8
2023-05-08T04:45:01.309Z,14.2
2023-05-08T04:47:00.956Z,14.9
2023-05-08T04:48:01.088Z,15.1
2023-05-08T04:50:02.652Z,15.6
2023-05-08T04:52:01.009Z,15.9
2023-05-08T04:54:01.166Z,16
2023-05-08T04:56:01.013Z,16.2
2023-05-08T04:58:01.024Z,16.6
2023-05-08T05:00:01.184Z,17.1
2023-05-08T05:01:01.230Z,17
2023-05-08T05:02:01.430Z,16.9
2023-05-08T05:04:01.105Z,16.2
2023-05-08T05:05:01.483Z,16.1
2023-05-08T05:06:01.437Z,15.8
2023-05-08T05:09:01.567Z,15.6
2023-05-08T05:12:01.221Z,15.7
2023-05-08T05:14:01.130Z,15.6
2023-05-08T05:16:01.394Z,15.7
2023-05-08T05:18:01.191Z,16.1
2023-05-08T05:22:01.232Z,16.8
2023-05-08T05:23:01.327Z,17
2023-05-08T05:25:01.230Z,17.4
2023-05-08T05:27:01.272Z,17.9
2023-05-08T05:29:01.109Z,18.3
2023-05-08T05:31:01.501Z,18.4
2023-05-08T05:38:01.618Z,18.4
2023-05-08T05:42:01.190Z,18.5
2023-05-08T05:45:01.281Z,18.3
2023-05-08T05:46:01.211Z,18
2023-05-08T05:48:01.249Z,17.7
2023-05-08T05:51:01.024Z,17.2
2023-05-08T05:53:01.028Z,16.8
2023-05-08T05:55:00.993Z,16.2
2023-05-08T05:56:01.075Z,16.1
2023-05-08T05:58:01.022Z,15.4
2023-05-08T05:59:01.027Z,15
2023-05-08T06:00:01.222Z,14.8
2023-05-08T06:02:01.186Z,14.5
2023-05-08T06:04:01.108Z,14.2
2023-05-08T06:05:01.012Z,14.1
2023-05-08T06:06:01.212Z,14
2023-05-08T06:08:01.045Z,13.7
2023-05-08T06:11:01.029Z,13.3
2023-05-08T06:13:01.022Z,13.1
2023-05-08T06:16:01.026Z,13
2023-05-08T06:21:01.095Z,13
2023-05-08T06:24:01.047Z,12.8
2023-05-08T06:25:01.050Z,12.6
2023-05-08T06:27:01.061Z,12.5
2023-05-08T06:31:01.064Z,12.5
2023-05-08T06:33:01.170Z,12.8
2023-05-08T06:35:01.100Z,12.8
2023-05-08T06:38:00.951Z,13
2023-05-08T06:40:11.399Z,13.1
2023-05-08T06:42:00.965Z,13.3
2023-05-08T06:43:01.068Z,13.1
2023-05-08T06:45:01.149Z,13.5
2023-05-08T06:47:01.085Z,13.6
2023-05-08T06:49:01.060Z,13.6
2023-05-08T06:51:01.022Z,13.5
2023-05-08T06:54:01.055Z,13.8
2023-05-08T06:56:01.127Z,14
2023-05-08T06:58:00.973Z,14
2023-05-08T07:00:01.136Z,14.1
2023-05-08T07:02:01.085Z,14.2
2023-05-08T07:04:01.084Z,14.4
2023-05-08T07:06:00.976Z,14.4
2023-05-08T07:07:01.010Z,14.5
2023-05-08T07:09:01.043Z,14.5
2023-05-08T07:11:01.128Z,14.2
2023-05-08T07:13:01.254Z,13.9
2023-05-08T07:16:01.034Z,13.4
2023-05-08T07:17:01.107Z,13.3
2023-05-08T07:21:01.066Z,13.1
2023-05-08T07:23:01.128Z,13.1
2023-05-08T07:26:00.993Z,13.1
2023-05-08T07:31:01.033Z,13.2
2023-05-08T07:34:01.023Z,13.4
2023-05-08T07:35:01.060Z,13.5
2023-05-08T07:36:01.077Z,13.3
2023-05-08T07:40:01.037Z,13.3
2023-05-08T07:41:01.080Z,13.4
2023-05-08T07:46:00.976Z,13.2
2023-05-08T07:47:01.073Z,13.3
2023-05-08T07:49:01.041Z,13.3
2023-05-08T07:53:01.029Z,13.4
2023-05-08T07:56:01.010Z,13.3
2023-05-08T07:57:01.110Z,13.1
2023-05-08T08:01:01.065Z,13.2
2023-05-08T08:05:01.302Z,13.3
2023-05-08T08:08:01.008Z,13.4
2023-05-08T08:10:01.033Z,13.3
2023-05-08T08:14:00.958Z,13.7
2023-05-08T08:15:01.329Z,13.8
2023-05-08T08:17:01.053Z,13.9
2023-05-08T08:20:01.028Z,14
2023-05-08T08:23:01.056Z,14.2
2023-05-08T08:24:01.107Z,14.1
2023-05-08T08:29:01.018Z,14
2023-05-08T08:30:15.493Z,13.9
2023-05-08T08:33:01.069Z,13.8
2023-05-08T08:35:01.008Z,13.8
2023-05-08T08:37:01.063Z,13.8
2023-05-08T08:38:01.197Z,13.7
2023-05-08T08:44:01.068Z,13.9
2023-05-08T08:46:01.068Z,14.1
2023-05-08T08:48:01.062Z,14.3
2023-05-08T08:49:01.009Z,14.4
2023-05-08T08:50:01.027Z,14.6
2023-05-08T08:51:00.997Z,14.5
2023-05-08T08:53:01.175Z,14.6
2023-05-08T08:55:01.013Z,14.6
2023-05-08T08:57:01.074Z,14.7
2023-05-08T09:01:01.110Z,14.7
2023-05-08T09:04:01.091Z,14.9
2023-05-08T09:06:00.970Z,15.1
2023-05-08T09:09:01.124Z,15.2
2023-05-08T09:13:01.056Z,15.2
2023-05-08T09:16:01.212Z,15.3
2023-05-08T09:19:01.082Z,15.4
2023-05-08T09:22:00.963Z,15.6
2023-05-08T09:23:01.095Z,15.5
2023-05-08T09:26:01.159Z,15.8
2023-05-08T09:33:01.093Z,15.7
2023-05-08T09:34:01.072Z,15.8
2023-05-08T09:37:01.047Z,15.9
2023-05-08T09:39:01.024Z,16.1
2023-05-08T09:41:01.051Z,16.1
2023-05-08T09:43:01.005Z,16.2
2023-05-08T09:44:01.069Z,16.3
2023-05-08T09:52:01.011Z,16.5
2023-05-08T09:55:01.012Z,16.9
2023-05-08T09:58:00.990Z,17
2023-05-08T10:00:01.181Z,17.1
2023-05-08T10:02:01.004Z,17.2
2023-05-08T10:04:01.019Z,17.1
2023-05-08T10:07:01.001Z,17.2
2023-05-08T10:10:01.057Z,17.6
2023-05-08T10:11:01.040Z,17.7
2023-05-08T10:13:01.160Z,17.8
2023-05-08T10:16:00.977Z,18.1
2023-05-08T10:17:01.121Z,18.2
2023-05-08T10:22:01.174Z,18.3
2023-05-08T10:26:01.062Z,18.5
2023-05-08T10:28:00.965Z,18.7
2023-05-08T10:32:00.950Z,18.6
2023-05-08T10:33:01.068Z,18.7
2023-05-08T10:35:01.034Z,18.7
2023-05-08T10:38:01.027Z,19
2023-05-08T10:41:01.050Z,19.1
2023-05-08T10:43:01.015Z,19.3
2023-05-08T10:44:03.117Z,19.2
2023-05-08T10:47:01.035Z,19.3
2023-05-08T10:48:01.069Z,19.2
2023-05-08T10:50:01.086Z,19.1
2023-05-08T10:52:01.076Z,18.8
2023-05-08T10:53:01.093Z,18.7
2023-05-08T10:59:01.146Z,18.7
2023-05-08T11:03:01.006Z,18.6
2023-05-08T11:05:00.985Z,18.6
2023-05-08T11:07:01.018Z,18.7
2023-05-08T11:09:01.121Z,18.6
2023-05-08T11:11:01.059Z,18.6
2023-05-08T11:15:01.087Z,18.6
2023-05-08T11:17:01.038Z,18.4
2023-05-08T11:20:00.994Z,18.3
2023-05-08T11:21:01.012Z,18.4
2023-05-08T11:23:01.013Z,18.3
2023-05-08T11:25:00.999Z,18.2
2023-05-08T11:26:01.027Z,18.1
2023-05-08T11:31:01.018Z,18.2
2023-05-08T11:36:01.059Z,18.2
2023-05-08T11:37:01.056Z,18
2023-05-08T11:42:01.056Z,18.2
2023-05-08T11:43:01.050Z,18.1
2023-05-08T11:45:01.144Z,18
2023-05-08T11:47:01.192Z,18
2023-05-08T11:50:00.972Z,18.5
2023-05-08T11:51:01.108Z,18.4
2023-05-08T11:53:01.039Z,18.6
2023-05-08T11:55:01.031Z,18.7
2023-05-08T11:57:00.997Z,18.8
2023-05-08T11:58:01.225Z,18.9
2023-05-08T12:01:01.115Z,18.7
2023-05-08T12:06:01.052Z,18.7
2023-05-08T12:08:00.966Z,18.7
2023-05-08T12:10:00.983Z,18.6
2023-05-08T12:12:01.013Z,18.7
2023-05-08T12:15:01.201Z,18.6
2023-05-08T12:21:01.193Z,18.8
2023-05-08T12:23:01.025Z,18.6
2023-05-08T12:26:01.079Z,19
2023-05-08T12:27:01.079Z,18.9
2023-05-08T12:29:01.092Z,19
2023-05-08T12:31:01.103Z,18.9
2023-05-08T12:33:01.111Z,18.9
2023-05-08T12:35:01.070Z,18.8
2023-05-08T12:37:01.038Z,18.7
2023-05-08T12:39:00.990Z,18.8
2023-05-08T12:42:01.278Z,18.9
2023-05-08T12:43:01.030Z,19.1
2023-05-08T12:45:01.214Z,19.2
2023-05-08T12:48:01.086Z,19.4
2023-05-08T12:49:01.023Z,19.5
2023-05-08T12:52:00.966Z,19.5
2023-05-08T12:54:01.023Z,19.6
2023-05-08T12:55:01.061Z,19.7
2023-05-08T12:57:01.033Z,19.6
2023-05-08T13:00:02.887Z,19.6
2023-05-08T13:01:01.015Z,19.8
2023-05-08T13:03:01.126Z,19.8
2023-05-08T13:10:01.019Z,20.1
2023-05-08T13:11:01.193Z,20.2
2023-05-08T13:15:01.069Z,20
2023-05-08T13:17:01.077Z,20.3
2023-05-08T13:19:01.033Z,20.3
2023-05-08T13:22:00.960Z,20.1
2023-05-08T13:23:01.008Z,20
2023-05-08T13:25:01.027Z,19.6
2023-05-08T13:26:01.136Z,19.5
2023-05-08T13:28:00.952Z,19.4
2023-05-08T13:31:01.052Z,19.3
2023-05-08T13:35:01.341Z,19.2
2023-05-08T13:37:01.134Z,19.3
2023-05-08T13:39:01.065Z,19.5
2023-05-08T13:42:00.987Z,19.6
2023-05-08T13:43:01.026Z,19.5
2023-05-08T13:47:00.939Z,19.4
2023-05-08T13:48:00.989Z,19.5
2023-05-08T13:50:00.983Z,19.8
2023-05-08T13:52:00.970Z,19.7
2023-05-08T13:53:01.004Z,20
2023-05-08T13:55:01.018Z,20.2
2023-05-08T13:58:01.044Z,20.1
2023-05-08T14:00:01.050Z,20.3
2023-05-08T14:04:01.144Z,20.4
2023-05-08T14:05:01.016Z,20.3
2023-05-08T14:07:01.019Z,20
2023-05-08T14:08:01.028Z,19.9
2023-05-08T14:09:01.059Z,19.6
2023-05-08T14:10:01.006Z,19.8
2023-05-08T14:11:01.056Z,19.7
2023-05-08T14:13:01.146Z,19.8
2023-05-08T14:15:01.259Z,19.6
2023-05-08T14:17:01.204Z,19.5
2023-05-08T14:19:01.070Z,19.4
2023-05-08T14:22:00.977Z,19.4
2023-05-08T14:23:01.020Z,19.5
2023-05-08T14:25:01.079Z,19.5
2023-05-08T14:29:01.012Z,19.8
2023-05-08T14:31:01.011Z,19.9
2023-05-08T14:34:01.181Z,19.2
2023-05-08T14:36:01.082Z,19.2
2023-05-08T14:38:01.023Z,19.3
2023-05-08T14:43:01.040Z,19.1
2023-05-08T14:44:01.035Z,18.9
2023-05-08T14:46:01.084Z,18.7
2023-05-08T14:47:01.050Z,18.8
2023-05-08T14:48:01.210Z,18.9
2023-05-08T14:52:01.003Z,18.8
2023-05-08T14:54:01.245Z,18.7
2023-05-08T14:56:01.393Z,18.5
2023-05-08T14:59:01.086Z,18.7
2023-05-08T15:00:01.260Z,18.6
2023-05-08T15:03:01.165Z,18.5
2023-05-08T15:05:01.075Z,18.4
2023-05-08T15:08:01.057Z,18.3
2023-05-08T15:11:01.087Z,18.4
2023-05-08T15:16:01.123Z,18.6
2023-05-08T15:19:01.121Z,18.3
2023-05-08T15:21:01.002Z,18.2
2023-05-08T15:23:01.007Z,18.1
2023-05-08T15:26:01.250Z,17.9
2023-05-08T15:29:01.010Z,18
2023-05-08T15:30:01.022Z,17.9
2023-05-08T15:32:01.041Z,17.8
2023-05-08T15:33:01.290Z,17.9
2023-05-08T15:36:01.020Z,17.9
2023-05-08T15:39:01.005Z,18.4
2023-05-08T15:42:00.990Z,18.5
2023-05-08T15:44:01.028Z,18.7
2023-05-08T15:46:00.985Z,18.8
2023-05-08T15:49:02.768Z,18.7
2023-05-08T15:51:01.043Z,18.7
2023-05-08T15:52:01.157Z,18.5
2023-05-08T15:54:00.971Z,18.6
2023-05-08T15:55:01.022Z,18.5
2023-05-08T15:57:01.038Z,18.3
2023-05-08T15:59:01.054Z,18.3
2023-05-08T16:01:01.123Z,18
2023-05-08T16:03:01.104Z,17.8
2023-05-08T16:05:01.070Z,17.7
2023-05-08T16:08:00.957Z,17.6
2023-05-08T16:09:01.290Z,17.7
2023-05-08T16:11:01.024Z,17.4
2023-05-08T16:16:01.071Z,17.2
2023-05-08T16:19:01.019Z,17.3
2023-05-08T16:22:01.054Z,16.9
2023-05-08T16:23:01.186Z,17
2023-05-08T16:26:01.080Z,16.8
2023-05-08T16:27:01.118Z,16.7
2023-05-08T16:31:01.057Z,16.5
2023-05-08T16:33:01.133Z,16.6
2023-05-08T16:36:01.008Z,16.6
2023-05-08T16:37:01.034Z,16.5
2023-05-08T16:38:01.019Z,16.6
2023-05-08T16:39:01.147Z,16.5
2023-05-08T16:43:01.117Z,16.4
2023-05-08T16:47:01.035Z,16.5
2023-05-08T16:49:01.013Z,16.4
2023-05-08T16:51:01.060Z,16.4
2023-05-08T16:53:01.076Z,16.3
2023-05-08T16:55:01.073Z,16.5
2023-05-08T16:57:01.038Z,16.3
2023-05-08T17:01:01.102Z,16.5
2023-05-08T17:03:01.064Z,16.3
2023-05-08T17:05:01.046Z,16.4
2023-05-08T17:07:01.018Z,16.3
2023-05-08T17:09:01.096Z,16.2
2023-05-08T17:14:01.028Z,16.2
2023-05-08T17:15:01.082Z,16.3
2023-05-08T17:17:01.081Z,16.2
2023-05-08T17:19:01.015Z,16.2
2023-05-08T17:21:01.084Z,16
2023-05-08T17:24:00.980Z,16
2023-05-08T17:25:01.035Z,16.1
2023-05-08T17:27:01.049Z,16
2023-05-08T17:29:01.052Z,16
2023-05-08T17:31:01.142Z,16.1
2023-05-08T17:35:01.245Z,16.1
2023-05-08T17:37:01.046Z,16
2023-05-08T17:40:00.989Z,15.8
2023-05-08T17:44:00.990Z,15.9
2023-05-08T17:45:01.257Z,15.8
2023-05-08T17:47:01.082Z,15.8
2023-05-08T17:51:01.054Z,15.3
2023-05-08T17:57:01.017Z,15.2
2023-05-08T17:59:01.024Z,15.2
2023-05-08T18:01:01.097Z,15
2023-05-08T18:10:01.029Z,14.9
2023-05-08T18:11:01.187Z,14.7
2023-05-08T18:13:01.209Z,15
2023-05-08T18:15:01.280Z,14.9
2023-05-08T18:17:01.141Z,14.7
2023-05-08T18:19:01.077Z,14.7
2023-05-08T18:22:00.997Z,14.5
2023-05-08T18:23:01.018Z,14.6
2023-05-08T18:25:01.057Z,14.5
2023-05-08T18:27:01.024Z,14.4
2023-05-08T18:30:01.196Z,14.3
2023-05-08T18:32:00.947Z,14.3
2023-05-08T18:33:01.046Z,14.2
2023-05-08T18:35:01.037Z,14.1
2023-05-08T18:38:00.986Z,14.1
2023-05-08T18:39:01.013Z,14
2023-05-08T18:42:00.967Z,14
2023-05-08T18:45:01.110Z,13.9
2023-05-08T18:47:01.015Z,13.8
2023-05-08T18:49:00.999Z,14
2023-05-08T18:50:01.006Z,13.8
2023-05-08T18:54:00.995Z,13.7
2023-05-08T18:55:01.019Z,13.8
2023-05-08T18:57:01.015Z,13.7
2023-05-08T18:59:01.016Z,13.6
2023-05-08T19:01:01.177Z,13.5
2023-05-08T19:05:01.052Z,13.4
2023-05-08T19:08:01.122Z,13.3
2023-05-08T19:10:00.982Z,13.4
2023-05-08T19:11:01.012Z,13.3
2023-05-08T19:13:01.069Z,13.2
2023-05-08T19:16:01.095Z,13.2
2023-05-08T19:17:01.032Z,13.1
2023-05-08T19:19:01.013Z,13
2023-05-08T19:25:01.026Z,12.8
2023-05-08T19:27:01.047Z,12.9
2023-05-08T19:29:01.040Z,12.7
2023-05-08T19:32:00.988Z,12.6
2023-05-08T19:33:01.049Z,12.7
2023-05-08T19:38:01.016Z,12.5
2023-05-08T19:39:01.187Z,12.6
2023-05-08T19:42:00.995Z,12.4
2023-05-08T19:45:01.134Z,12.5
2023-05-08T19:48:00.967Z,12.2
2023-05-08T19:52:01.013Z,12.1
2023-05-08T19:57:01.112Z,12
2023-05-08T19:59:01.091Z,11.9
2023-05-08T20:00:01.160Z,11.8
2023-05-08T20:02:00.978Z,11.8
2023-05-08T20:03:01.022Z,11.9
2023-05-08T20:04:01.237Z,11.8
2023-05-08T20:07:00.933Z,11.9
2023-05-08T20:08:00.992Z,11.7
2023-05-08T20:10:00.990Z,11.7
2023-05-08T20:13:00.974Z,11.6
2023-05-08T20:14:00.978Z,11.5
2023-05-08T20:15:01.142Z,11.6
2023-05-08T20:18:01.029Z,11.6
2023-05-08T20:22:00.946Z,11.4
2023-05-08T20:23:01.036Z,11.5
2023-05-08T20:25:02.846Z,11.5
2023-05-08T20:27:01.001Z,11.4
2023-05-08T20:29:00.921Z,11.3
2023-05-08T20:31:00.931Z,11.2
2023-05-08T20:32:00.943Z,11.3
2023-05-08T20:34:00.946Z,11.1
2023-05-08T20:36:00.961Z,11
2023-05-08T20:39:00.949Z,10.9
2023-05-08T20:41:01.278Z,10.8
2023-05-08T20:42:01.008Z,10.7
2023-05-08T20:44:00.964Z,10.7
2023-05-08T20:45:01.147Z,10.6
2023-05-08T20:48:01.029Z,10.5
2023-05-08T20:50:00.937Z,10.6
2023-05-08T20:52:00.945Z,10.5
2023-05-08T20:53:00.977Z,10.4
2023-05-08T20:55:00.958Z,10.4
2023-05-08T20:57:00.980Z,10.3
2023-05-08T21:00:01.086Z,10.4
2023-05-08T21:02:00.959Z,10.3
2023-05-08T21:04:00.950Z,10.4
2023-05-08T21:05:01.111Z,10.2
2023-05-08T21:06:01.037Z,10.3
2023-05-08T21:12:00.988Z,10.3
2023-05-08T21:14:00.962Z,10.5
2023-05-08T21:15:01.104Z,10.4
2023-05-08T21:18:01.137Z,10.4
2023-05-08T21:20:00.947Z,10.5
2023-05-08T21:21:01.009Z,10.4
2023-05-08T21:23:00.973Z,10.4
2023-05-08T21:24:01.096Z,10.6
2023-05-08T21:26:01.103Z,10.5
2023-05-08T21:31:01.049Z,10.6
2023-05-08T21:35:01.048Z,10.7
2023-05-08T21:40:01.032Z,10.7
2023-05-08T21:46:01.140Z,10.8
2023-05-08T21:52:01.128Z,10.7
2023-05-08T21:54:01.099Z,10.8
2023-05-08T21:59:01.239Z,10.8
2023-05-08T22:01:01.214Z,10.7
2023-05-08T22:03:01.064Z,10.7
2023-05-08T22:05:00.980Z,10.8
2023-05-08T22:07:00.943Z,10.6
2023-05-08T22:08:01.008Z,10.7
2023-05-08T22:09:00.992Z,10.9
2023-05-08T22:11:00.938Z,10.6
2023-05-08T22:13:01.018Z,10.5
2023-05-08T22:14:00.949Z,10.6
2023-05-08T22:16:00.970Z,10.7
2023-05-08T22:18:01.039Z,10.6
2023-05-08T22:20:01.021Z,10.6
2023-05-08T22:23:00.941Z,10.4
2023-05-08T22:24:00.978Z,10.5
2023-05-08T22:26:01.000Z,10.5
2023-05-08T22:31:00.954Z,10.3
2023-05-08T22:32:00.984Z,10.4
2023-05-08T22:33:01.026Z,10.5
2023-05-08T22:34:00.941Z,10.4
2023-05-08T22:36:00.994Z,10.2
2023-05-08T22:41:00.986Z,10.3
2023-05-08T22:44:00.937Z,10.2
2023-05-08T22:45:01.109Z,10.1
2023-05-08T22:47:00.981Z,10
2023-05-08T22:48:01.057Z,10.1
2023-05-08T22:50:00.947Z,10
2023-05-08T22:55:01.044Z,9.9
2023-05-08T22:57:00.940Z,9.8
2023-05-08T22:59:00.940Z,9.9
2023-05-08T23:00:01.044Z,9.8
2023-05-08T23:02:00.932Z,9.7
2023-05-08T23:07:00.978Z,9.6
2023-05-08T23:09:01.130Z,9.5
2023-05-08T23:12:00.968Z,9.4
2023-05-08T23:13:01.062Z,9.5
2023-05-08T23:16:00.961Z,9.4
2023-05-08T23:17:01.050Z,9.5
2023-05-08T23:18:01.034Z,9.4
2023-05-08T23:19:01.032Z,9.5
2023-05-08T23:24:01.002Z,9.2
2023-05-08T23:26:01.020Z,9.3
2023-05-08T23:27:00.980Z,9.2
2023-05-08T23:30:01.218Z,9.3
2023-05-08T23:33:00.991Z,9.2
2023-05-08T23:37:00.952Z,9.1
2023-05-08T23:38:00.987Z,9.2
2023-05-08T23:40:00.941Z,9.1
2023-05-08T23:47:00.991Z,9
2023-05-08T23:48:01.171Z,8.8
2023-05-08T23:50:01.017Z,8.9
2023-05-08T23:54:01.073Z,8.8
2023-05-08T23:56:01.022Z,8.8
2023-05-08T23:58:01.049Z,8.9
